createdAt,value
2019-02-16T00:01:16.194Z,1.50
2019-02-16T00:03:48.841Z,1.50
2019-02-16T00:06:21.565Z,1.50
2019-02-16T00:08:55.557Z,1.50
2019-02-16T00:11:41.218Z,1.50
2019-02-16T00:14:14.928Z,1.40
2019-02-16T00:16:51.430Z,1.40
2019-02-16T00:19:26.989Z,1.40
2019-02-16T00:22:01.188Z,1.40
2019-02-16T00:24:37.668Z,1.30
2019-02-16T00:27:12.636Z,1.30
2019-02-16T00:29:46.847Z,1.20
2019-02-16T00:32:20.818Z,1.20
2019-02-16T00:34:55.692Z,1.10
2019-02-16T00:37:28.761Z,1.20
2019-02-16T00:40:01.462Z,1.10
2019-02-16T00:42:34.175Z,1.10
2019-02-16T00:45:08.048Z,1.10
2019-02-16T00:47:41.080Z,1.10
2019-02-16T00:50:15.645Z,1.00
2019-02-16T00:52:50.179Z,1.00
2019-02-16T00:55:23.987Z,0.90
2019-02-16T00:57:59.133Z,0.90
2019-02-16T01:00:33.681Z,0.90
2019-02-16T01:03:08.722Z,0.80
2019-02-16T01:05:41.928Z,0.80
2019-02-16T01:08:16.465Z,0.70
2019-02-16T01:10:49.453Z,0.70
2019-02-16T01:13:24.321Z,0.70
2019-02-16T01:15:57.452Z,0.70
2019-02-16T01:18:30.162Z,0.60
2019-02-16T01:21:02.818Z,0.60
2019-02-16T01:23:38.376Z,0.50
2019-02-16T01:26:12.147Z,0.40
2019-02-16T01:28:47.172Z,0.40
2019-02-16T01:31:19.978Z,0.30
2019-02-16T01:33:55.340Z,0.20
2019-02-16T01:36:29.010Z,0.10
2019-02-16T01:39:01.912Z,0.10
2019-02-16T01:41:38.364Z,0.00
2019-02-16T01:44:11.458Z,-0.10
2019-02-16T01:46:44.703Z,-0.20
2019-02-16T01:49:18.489Z,-0.30
2019-02-16T01:51:52.735Z,-0.40
2019-02-16T01:54:37.212Z,-0.50
2019-02-16T01:57:10.494Z,-0.50
2019-02-16T01:59:43.774Z,-0.60
2019-02-16T02:02:21.941Z,-0.70
2019-02-16T02:04:56.314Z,-0.70
2019-02-16T02:07:29.662Z,-0.70
2019-02-16T02:10:03.672Z,-0.70
2019-02-16T02:12:39.212Z,-0.70
2019-02-16T02:15:12.443Z,-0.80
2019-02-16T02:17:46.643Z,-0.90
2019-02-16T02:20:19.410Z,-1.00
2019-02-16T02:22:52.208Z,-1.00
2019-02-16T02:25:24.574Z,-1.10
2019-02-16T02:27:57.273Z,-1.20
2019-02-16T02:30:29.960Z,-1.30
2019-02-16T02:33:02.741Z,-1.40
2019-02-16T02:35:35.721Z,-1.50
2019-02-16T02:38:08.866Z,-1.50
2019-02-16T02:40:41.900Z,-1.60
2019-02-16T02:43:14.524Z,-1.60
2019-02-16T02:45:47.716Z,-1.50
2019-02-16T02:48:20.826Z,-1.50
2019-02-16T02:50:53.425Z,-1.40
2019-02-16T02:53:31.455Z,-1.40
2019-02-16T02:56:09.321Z,-1.50
2019-02-16T02:58:41.921Z,-1.50
2019-02-16T03:01:16.735Z,-1.50
2019-02-16T03:03:49.426Z,-1.50
2019-02-16T03:06:22.682Z,-1.60
2019-02-16T03:08:55.091Z,-1.60
2019-02-16T03:11:27.825Z,-1.60
2019-02-16T03:14:01.099Z,-1.60
2019-02-16T03:16:33.746Z,-1.60
2019-02-16T03:19:06.281Z,-1.60
2019-02-16T03:24:38.728Z,-1.70
2019-02-16T03:27:57.219Z,-1.80
2019-02-16T03:31:21.114Z,-1.90
2019-02-16T03:34:01.193Z,-2.00
2019-02-16T03:37:13.414Z,-2.10
2019-02-16T03:39:48.332Z,-2.10
2019-02-16T03:42:21.059Z,-2.20
2019-02-16T03:44:53.607Z,-2.20
2019-02-16T03:47:26.594Z,-2.30
2019-02-16T03:49:59.544Z,-2.30
2019-02-16T03:52:35.022Z,-2.40
2019-02-16T03:55:08.977Z,-2.40
2019-02-16T03:57:42.094Z,-2.40
2019-02-16T04:00:14.980Z,-2.40
2019-02-16T04:02:47.392Z,-2.30
2019-02-16T04:05:20.198Z,-2.10
2019-02-16T04:07:52.624Z,-2.10
2019-02-16T04:10:25.257Z,-2.10
2019-02-16T04:12:57.594Z,-2.10
2019-02-16T04:15:30.676Z,-2.10
2019-02-16T04:18:03.789Z,-2.00
2019-02-16T04:20:36.189Z,-2.00
2019-02-16T04:23:08.672Z,-2.00
2019-02-16T04:25:42.093Z,-2.00
2019-02-16T04:28:14.838Z,-2.00
2019-02-16T04:30:48.258Z,-2.10
2019-02-16T04:33:21.277Z,-2.10
2019-02-16T04:35:53.861Z,-2.00
2019-02-16T04:38:27.147Z,-2.10
2019-02-16T04:40:59.663Z,-2.10
2019-02-16T04:43:31.971Z,-2.10
2019-02-16T04:46:04.497Z,-2.10
2019-02-16T04:48:37.248Z,-2.10
2019-02-16T04:51:09.734Z,-2.10
2019-02-16T04:53:42.558Z,-2.10
2019-02-16T04:56:14.807Z,-2.20
2019-02-16T04:58:47.218Z,-2.20
2019-02-16T05:01:19.571Z,-2.20
2019-02-16T05:03:52.141Z,-2.10
2019-02-16T05:06:24.343Z,-2.10
2019-02-16T05:08:56.947Z,-2.10
2019-02-16T05:11:29.634Z,-2.10
2019-02-16T05:14:02.244Z,-2.10
2019-02-16T05:16:34.832Z,-2.10
2019-02-16T05:19:07.463Z,-2.10
2019-02-16T05:21:41.854Z,-2.10
2019-02-16T05:24:14.535Z,-2.10
2019-02-16T05:26:47.661Z,-2.00
2019-02-16T05:29:20.161Z,-2.00
2019-02-16T05:31:52.553Z,-2.00
2019-02-16T05:34:25.331Z,-2.00
2019-02-16T05:36:57.889Z,-2.00
2019-02-16T05:39:30.654Z,-2.00
2019-02-16T05:42:03.133Z,-2.00
2019-02-16T05:44:36.579Z,-2.00
2019-02-16T05:47:09.912Z,-2.00
2019-02-16T05:49:42.770Z,-2.00
2019-02-16T05:52:15.024Z,-2.00
2019-02-16T05:54:47.945Z,-2.00
2019-02-16T05:57:20.677Z,-2.00
2019-02-16T05:59:53.548Z,-2.00
2019-02-16T06:02:26.194Z,-2.00
2019-02-16T06:04:58.487Z,-2.00
2019-02-16T06:07:31.210Z,-2.00
2019-02-16T06:10:03.825Z,-2.00
2019-02-16T06:12:36.600Z,-2.00
2019-02-16T06:15:10.198Z,-2.00
2019-02-16T06:17:43.151Z,-2.00
2019-02-16T06:20:16.434Z,-2.00
2019-02-16T06:22:48.634Z,-2.00
2019-02-16T06:25:21.409Z,-2.00
2019-02-16T06:27:57.505Z,-2.00
2019-02-16T06:30:30.127Z,-2.00
2019-02-16T06:33:02.560Z,-2.00
2019-02-16T06:35:45.203Z,-2.00
2019-02-16T06:38:17.850Z,-2.00
2019-02-16T06:40:50.610Z,-2.10
2019-02-16T06:43:23.213Z,-2.10
2019-02-16T06:45:55.767Z,-2.10
2019-02-16T06:48:28.520Z,-2.10
2019-02-16T06:51:01.120Z,-2.10
2019-02-16T06:53:33.573Z,-2.10
2019-02-16T06:56:19.125Z,-2.10
2019-02-16T06:58:51.907Z,-2.20
2019-02-16T07:01:24.450Z,-2.20
2019-02-16T07:03:57.374Z,-2.20
2019-02-16T07:06:30.390Z,-2.10
2019-02-16T07:09:02.587Z,-2.10
2019-02-16T07:11:35.300Z,-2.20
2019-02-16T07:14:07.988Z,-2.20
2019-02-16T07:17:02.101Z,-2.20
2019-02-16T07:19:40.227Z,-2.20
2019-02-16T07:22:13.818Z,-2.20
2019-02-16T07:24:46.477Z,-2.20
2019-02-16T07:27:18.998Z,-2.30
2019-02-16T07:29:52.395Z,-2.30
2019-02-16T07:32:25.077Z,-2.30
2019-02-16T07:34:57.654Z,-2.30
2019-02-16T07:37:30.096Z,-2.20
2019-02-16T07:40:02.502Z,-2.30
2019-02-16T07:42:52.176Z,-2.30
2019-02-16T07:45:48.205Z,-2.30
2019-02-16T07:48:51.803Z,-2.30
2019-02-16T07:51:42.417Z,-2.40
2019-02-16T07:54:38.959Z,-2.30
2019-02-16T07:57:25.528Z,-2.40
2019-02-16T08:00:28.609Z,-2.40
2019-02-16T08:03:08.322Z,-2.40
2019-02-16T08:05:51.425Z,-2.40
2019-02-16T08:08:40.618Z,-2.50
2019-02-16T08:11:22.267Z,-2.50
2019-02-16T08:14:09.499Z,-2.50
2019-02-16T08:16:59.078Z,-2.60
2019-02-16T08:20:04.823Z,-2.60
2019-02-16T08:22:52.971Z,-2.70
2019-02-16T08:25:44.946Z,-2.80
2019-02-16T08:28:42.158Z,-2.80
2019-02-16T08:31:32.139Z,-2.90
2019-02-16T08:34:23.514Z,-2.90
2019-02-16T08:37:05.585Z,-2.90
2019-02-16T08:39:48.639Z,-2.80
2019-02-16T08:42:35.903Z,-2.80
2019-02-16T08:45:30.012Z,-2.80
2019-02-16T08:48:23.706Z,-2.80
2019-02-16T08:51:06.442Z,-2.70
2019-02-16T08:54:00.324Z,-2.70
2019-02-16T08:56:57.811Z,-2.70
2019-02-16T09:00:00.953Z,-2.60
2019-02-16T09:02:58.057Z,-2.60
2019-02-16T09:05:39.040Z,-2.60
2019-02-16T09:08:18.232Z,-2.60
2019-02-16T09:11:07.402Z,-2.70
2019-02-16T09:14:07.492Z,-2.60
2019-02-16T09:17:04.878Z,-2.70
2019-02-16T09:20:02.374Z,-2.70
2019-02-16T09:22:49.762Z,-2.60
2019-02-16T09:25:33.600Z,-2.60
2019-02-16T09:28:19.941Z,-2.60
2019-02-16T09:31:09.353Z,-2.60
2019-02-16T09:34:00.516Z,-2.60
2019-02-16T09:36:54.202Z,-2.60
2019-02-16T09:39:45.555Z,-2.60
2019-02-16T09:42:36.428Z,-2.60
2019-02-16T09:45:23.239Z,-2.60
2019-02-16T09:48:08.890Z,-2.60
2019-02-16T09:51:09.243Z,-2.60
2019-02-16T09:53:48.613Z,-2.60
2019-02-16T09:56:31.138Z,-2.70
2019-02-16T09:59:21.900Z,-2.70
2019-02-16T10:02:18.541Z,-2.80
2019-02-16T10:05:17.253Z,-2.80
2019-02-16T10:07:59.476Z,-2.90
2019-02-16T10:10:53.304Z,-3.00
2019-02-16T10:13:33.251Z,-3.10
2019-02-16T10:16:17.915Z,-3.10
2019-02-16T10:19:04.720Z,-3.10
2019-02-16T10:21:58.267Z,-3.20
2019-02-16T10:24:49.073Z,-3.30
2019-02-16T10:27:38.330Z,-3.40
2019-02-16T10:30:22.108Z,-3.30
2019-02-16T10:33:25.104Z,-3.30
2019-02-16T10:36:19.174Z,-3.20
2019-02-16T10:39:25.357Z,-3.20
2019-02-16T10:42:14.714Z,-3.20
2019-02-16T10:45:09.850Z,-3.20
2019-02-16T10:48:19.168Z,-3.20
2019-02-16T10:51:08.236Z,-3.10
2019-02-16T10:53:57.029Z,-3.10
2019-02-16T10:56:47.856Z,-3.10
2019-02-16T10:59:36.154Z,-3.20
2019-02-16T11:02:26.534Z,-3.20
2019-02-16T11:05:23.383Z,-3.30
2019-02-16T11:08:12.813Z,-3.40
2019-02-16T11:10:57.302Z,-3.50
2019-02-16T11:13:38.736Z,-3.50
2019-02-16T11:16:30.757Z,-3.60
2019-02-16T11:19:19.989Z,-3.70
2019-02-16T11:22:19.598Z,-3.80
2019-02-16T11:25:23.255Z,-4.00
2019-02-16T11:28:12.874Z,-3.90
2019-02-16T11:31:12.896Z,-3.90
2019-02-16T11:34:03.697Z,-4.00
2019-02-16T11:37:00.921Z,-4.20
2019-02-16T11:39:48.016Z,-4.40
2019-02-16T11:42:38.535Z,-4.50
2019-02-16T11:45:21.718Z,-4.60
2019-02-16T11:48:07.526Z,-4.70
2019-02-16T11:50:45.948Z,-4.80
2019-02-16T11:53:28.552Z,-4.90
2019-02-16T11:56:10.361Z,-5.00
2019-02-16T11:59:12.863Z,-5.10
2019-02-16T12:02:09.278Z,-5.10
2019-02-16T12:04:51.727Z,-5.20
2019-02-16T12:07:48.330Z,-5.30
2019-02-16T12:10:39.561Z,-5.40
2019-02-16T12:13:29.586Z,-5.50
2019-02-16T12:16:17.326Z,-5.60
2019-02-16T12:19:08.739Z,-5.60
2019-02-16T12:22:05.716Z,-5.60
2019-02-16T12:25:05.077Z,-5.70
2019-02-16T12:27:56.863Z,-5.70
2019-02-16T12:30:47.422Z,-5.70
2019-02-16T12:33:38.289Z,-5.70
2019-02-16T12:36:34.747Z,-5.70
2019-02-16T12:39:29.547Z,-5.50
2019-02-16T12:42:29.561Z,-5.50
2019-02-16T12:45:29.401Z,-5.50
2019-02-16T12:48:36.032Z,-5.50
2019-02-16T12:51:32.389Z,-5.40
2019-02-16T12:54:35.400Z,-5.40
2019-02-16T12:57:28.842Z,-5.30
2019-02-16T13:00:28.919Z,-5.10
2019-02-16T13:03:19.524Z,-5.10
2019-02-16T13:06:17.043Z,-5.00
2019-02-16T13:09:08.763Z,-5.00
2019-02-16T13:11:51.177Z,-4.90
2019-02-16T13:14:34.351Z,-4.90
2019-02-16T13:17:19.479Z,-4.80
2019-02-16T13:20:07.387Z,-4.90
2019-02-16T13:23:04.363Z,-4.80
2019-02-16T13:25:41.920Z,-4.80
2019-02-16T13:28:31.865Z,-4.80
2019-02-16T13:31:22.571Z,-4.90
2019-02-16T13:34:02.138Z,-4.90
2019-02-16T13:36:53.607Z,-4.80
2019-02-16T13:39:37.402Z,-5.10
2019-02-16T13:42:28.785Z,-5.30
2019-02-16T13:45:17.749Z,-5.60
2019-02-16T13:47:56.107Z,-5.70
2019-02-16T13:50:52.582Z,-5.80
2019-02-16T13:53:55.893Z,-5.80
2019-02-16T13:56:54.238Z,-5.90
2019-02-16T13:59:36.666Z,-6.10
2019-02-16T14:02:27.325Z,-6.10
2019-02-16T14:05:27.592Z,-6.20
2019-02-16T14:08:31.301Z,-6.30
2019-02-16T14:11:20.704Z,-6.40
2019-02-16T14:14:06.735Z,-6.30
2019-02-16T14:17:07.260Z,-6.20
2019-02-16T14:19:40.731Z,-6.20
2019-02-16T14:22:13.342Z,-6.20
2019-02-16T14:24:49.402Z,-6.20
2019-02-16T14:27:22.315Z,-6.20
2019-02-16T14:29:54.989Z,-6.20
2019-02-16T14:32:27.638Z,-6.10
2019-02-16T14:34:59.870Z,-6.10
2019-02-16T14:37:42.429Z,-5.90
2019-02-16T14:40:15.366Z,-5.80
2019-02-16T14:42:47.955Z,-5.60
2019-02-16T14:45:21.008Z,-5.50
2019-02-16T14:47:53.535Z,-5.40
2019-02-16T14:50:26.478Z,-5.20
2019-02-16T14:52:59.233Z,-4.90
2019-02-16T14:55:32.159Z,-5.00
2019-02-16T14:58:05.157Z,-5.00
2019-02-16T15:00:37.682Z,-5.00
2019-02-16T15:03:10.244Z,-5.20
2019-02-16T15:05:43.166Z,-5.20
2019-02-16T15:08:15.892Z,-5.20
2019-02-16T15:10:49.038Z,-5.20
2019-02-16T15:13:21.784Z,-4.90
2019-02-16T15:15:54.430Z,-4.70
2019-02-16T15:18:27.116Z,-4.60
2019-02-16T15:20:59.807Z,-4.50
2019-02-16T15:23:32.393Z,-4.20
2019-02-16T15:26:05.124Z,-4.10
2019-02-16T15:28:38.027Z,-4.20
2019-02-16T15:31:10.502Z,-4.30
2019-02-16T15:33:43.124Z,-4.20
2019-02-16T15:36:23.737Z,-4.10
2019-02-16T15:38:50.724Z,-4.10
2019-02-16T15:41:23.751Z,-4.20
2019-02-16T15:43:56.617Z,-4.30
2019-02-16T15:46:29.737Z,-4.20
2019-02-16T15:49:02.531Z,-4.10
2019-02-16T15:51:34.839Z,-4.00
2019-02-16T15:54:07.396Z,-3.90
2019-02-16T15:56:39.714Z,-3.90
2019-02-16T15:59:13.206Z,-3.80
2019-02-16T16:01:48.545Z,-3.60
2019-02-16T16:04:21.617Z,-3.20
2019-02-16T16:06:54.370Z,-3.10
2019-02-16T16:09:45.703Z,-2.90
2019-02-16T16:12:27.547Z,-2.80
2019-02-16T16:15:18.833Z,-2.80
2019-02-16T16:18:08.539Z,-2.80
2019-02-16T16:20:53.802Z,-3.00
2019-02-16T16:23:50.599Z,-2.90
2019-02-16T16:26:44.404Z,-2.70
2019-02-16T16:29:35.605Z,-2.90
2019-02-16T16:32:21.732Z,-2.60
2019-02-16T16:35:12.865Z,-2.60
2019-02-16T16:37:51.512Z,-2.30
2019-02-16T16:40:45.051Z,-2.10
2019-02-16T16:43:40.664Z,-2.20
2019-02-16T16:46:30.512Z,-2.20
2019-02-16T16:49:16.133Z,-1.90
2019-02-16T16:52:03.967Z,-2.10
2019-02-16T16:54:43.514Z,-2.30
2019-02-16T16:57:26.827Z,-2.40
2019-02-16T17:00:20.613Z,-2.30
2019-02-16T17:03:17.551Z,-2.20
2019-02-16T17:06:17.589Z,-2.30
2019-02-16T17:09:17.696Z,-2.20
2019-02-16T17:12:17.931Z,-2.10
2019-02-16T17:15:09.047Z,-2.00
2019-02-16T17:17:59.122Z,-1.60
2019-02-16T17:20:52.730Z,-1.30
2019-02-16T17:23:44.596Z,-1.40
2019-02-16T17:26:38.372Z,-1.50
2019-02-16T17:29:26.856Z,-1.70
2019-02-16T17:32:26.975Z,-1.40
2019-02-16T17:35:16.688Z,-1.20
2019-02-16T17:38:05.198Z,-1.30
2019-02-16T17:41:01.749Z,-1.40
2019-02-16T17:43:55.978Z,-1.30
2019-02-16T17:46:50.155Z,-1.00
2019-02-16T17:49:53.513Z,-1.20
2019-02-16T17:53:02.453Z,-1.40
2019-02-16T17:55:51.925Z,-1.50
2019-02-16T17:58:46.545Z,-1.30
2019-02-16T18:01:47.924Z,-1.40
2019-02-16T18:04:28.121Z,-1.40
2019-02-16T18:07:19.883Z,-1.10
2019-02-16T18:10:03.478Z,-1.40
2019-02-16T18:13:01.504Z,-1.40
2019-02-16T18:15:44.336Z,-1.30
2019-02-16T18:18:50.072Z,-1.00
2019-02-16T18:21:49.754Z,-0.80
2019-02-16T18:24:46.375Z,-0.80
2019-02-16T18:27:35.676Z,-0.70
2019-02-16T18:30:26.772Z,-0.70
2019-02-16T18:33:20.927Z,-0.40
2019-02-16T18:36:09.292Z,-0.70
2019-02-16T18:39:09.216Z,-0.90
2019-02-16T18:42:11.679Z,-0.80
2019-02-16T18:44:51.207Z,-1.00
2019-02-16T18:47:41.176Z,-1.30
2019-02-16T18:50:37.653Z,-1.30
2019-02-16T18:53:43.307Z,-1.50
2019-02-16T18:56:37.335Z,-1.50
2019-02-16T18:59:31.449Z,-1.20
2019-02-16T19:02:34.377Z,-0.80
2019-02-16T19:05:28.356Z,-0.40
2019-02-16T19:08:25.324Z,-0.40
2019-02-16T19:11:14.895Z,-0.80
2019-02-16T19:13:58.187Z,-1.00
2019-02-16T19:16:47.985Z,-1.60
2019-02-16T19:19:38.713Z,-1.80
2019-02-16T19:22:23.948Z,-1.70
2019-02-16T19:25:06.582Z,-1.50
2019-02-16T19:27:57.568Z,-1.70
2019-02-16T19:30:57.305Z,-1.50
2019-02-16T19:33:52.801Z,-1.20
2019-02-16T19:36:37.961Z,-1.00
2019-02-16T19:39:27.549Z,-0.90
2019-02-16T19:42:21.679Z,-0.50
2019-02-16T19:45:27.874Z,-0.10
2019-02-16T19:48:21.357Z,-0.30
2019-02-16T19:51:15.696Z,-0.40
2019-02-16T19:54:12.505Z,-0.90
2019-02-16T19:57:01.171Z,-1.40
2019-02-16T19:59:52.762Z,-1.90
2019-02-16T20:02:42.295Z,-2.30
2019-02-16T20:05:31.288Z,-2.10
2019-02-16T20:08:22.223Z,-2.00
2019-02-16T20:11:20.027Z,-2.40
2019-02-16T20:14:16.623Z,-2.60
2019-02-16T20:17:17.045Z,-2.40
2019-02-16T20:20:07.959Z,-1.90
2019-02-16T20:22:54.585Z,-1.90
2019-02-16T20:25:57.356Z,-2.10
2019-02-16T20:28:51.789Z,-2.00
2019-02-16T20:31:48.742Z,-1.80
2019-02-16T20:34:38.064Z,-1.90
2019-02-16T20:37:31.940Z,-1.80
2019-02-16T20:40:38.620Z,-1.90
2019-02-16T20:43:20.628Z,-1.90
2019-02-16T20:46:09.702Z,-1.80
2019-02-16T20:49:03.496Z,-1.60
2019-02-16T20:51:45.621Z,-1.60
2019-02-16T20:54:35.231Z,-1.60
2019-02-16T20:57:25.919Z,-2.20
2019-02-16T21:00:20.016Z,-2.20
2019-02-16T21:03:11.196Z,-2.10
2019-02-16T21:06:02.446Z,-2.10
2019-02-16T21:08:53.562Z,-2.10
2019-02-16T21:11:39.521Z,-2.20
2019-02-16T21:14:42.490Z,-2.20
2019-02-16T21:17:31.483Z,-2.40
2019-02-16T21:20:20.900Z,-2.50
2019-02-16T21:23:15.898Z,-2.40
2019-02-16T21:26:01.195Z,-2.50
2019-02-16T21:28:48.374Z,-2.60
2019-02-16T21:31:48.079Z,-2.80
2019-02-16T21:34:56.847Z,-2.70
2019-02-16T21:37:54.926Z,-2.80
2019-02-16T21:40:44.161Z,-3.00
2019-02-16T21:43:47.350Z,-3.10
2019-02-16T21:46:38.687Z,-3.30
2019-02-16T21:49:27.219Z,-3.50
2019-02-16T21:52:21.297Z,-3.60
2019-02-16T21:55:08.662Z,-3.80
2019-02-16T21:58:08.568Z,-4.00
2019-02-16T22:01:03.033Z,-4.10
2019-02-16T22:03:48.811Z,-4.30
2019-02-16T22:06:42.505Z,-4.40
2019-02-16T22:09:48.751Z,-4.50
2019-02-16T22:12:42.588Z,-4.60
2019-02-16T22:15:15.115Z,-4.70
2019-02-16T22:17:47.723Z,-4.90
2019-02-16T22:20:20.600Z,-5.00
2019-02-16T22:22:53.186Z,-5.30
2019-02-16T22:25:25.745Z,-5.50
2019-02-16T22:27:58.288Z,-5.60
2019-02-16T22:30:31.183Z,-5.70
2019-02-16T22:33:07.600Z,-5.80
2019-02-16T22:35:40.113Z,-6.00
2019-02-16T22:38:12.852Z,-6.10
2019-02-16T22:40:45.645Z,-6.30
2019-02-16T22:43:17.973Z,-6.30
2019-02-16T22:45:51.207Z,-6.50
2019-02-16T22:48:23.908Z,-6.60
2019-02-16T22:50:56.617Z,-6.60
2019-02-16T22:53:29.451Z,-6.60
2019-02-16T22:56:02.170Z,-6.70
2019-02-16T22:58:34.531Z,-6.80
2019-02-16T23:01:07.647Z,-6.80
2019-02-16T23:03:41.288Z,-6.90
2019-02-16T23:06:14.854Z,-7.00
2019-02-16T23:08:50.522Z,-7.00
2019-02-16T23:11:23.195Z,-7.20
2019-02-16T23:13:55.805Z,-7.50
2019-02-16T23:16:28.312Z,-7.70
2019-02-16T23:19:02.646Z,-7.70
2019-02-16T23:21:36.006Z,-7.80
2019-02-16T23:24:08.884Z,-8.00
2019-02-16T23:26:41.849Z,-8.10
2019-02-16T23:29:14.349Z,-8.30
2019-02-16T23:31:48.276Z,-8.60
2019-02-16T23:34:23.967Z,-8.80
2019-02-16T23:36:56.822Z,-8.90
2019-02-16T23:39:29.961Z,-8.90
2019-02-16T23:42:02.633Z,-9.10
2019-02-16T23:44:35.078Z,-9.20
2019-02-16T23:47:07.971Z,-9.40
2019-02-16T23:49:40.782Z,-9.50
2019-02-16T23:52:12.993Z,-9.40
2019-02-16T23:54:46.142Z,-9.20
2019-02-16T23:57:18.590Z,-9.20
2019-02-16T23:59:51.154Z,-9.20
